Time;durP1;ratioP1;P1;durP2;ratioP2;P2;SDS_P1;SDS_P2;PMS_P1;PMS_P2;Temp;Humidity;BMP_temperature;BMP_pressure;BME280_temperature;BME280_humidity;BME280_pressure;Samples;Min_cycle;Max_cycle;Signal;HPM_P1;HPM_P2
2021/08/05 00:01:07;;;;;;;21.13;13.07;;;17.20;97.30;;;;;;5038260;28;20175;-83
2021/08/05 00:03:33;;;;;;;21.57;15.37;;;17.20;97.30;;;;;;5038487;28;20172;-83
2021/08/05 00:05:58;;;;;;;21.50;13.43;;;17.20;97.30;;;;;;5038411;28;20258;-83
2021/08/05 00:08:24;;;;;;;18.00;13.40;;;17.20;97.30;;;;;;5039383;28;20192;-82
2021/08/05 00:10:49;;;;;;;17.83;13.07;;;17.20;97.30;;;;;;5038122;28;20211;-83
2021/08/05 00:13:15;;;;;;;19.03;14.07;;;17.20;97.30;;;;;;5038175;28;20183;-83
2021/08/05 00:15:40;;;;;;;17.00;13.10;;;17.20;97.30;;;;;;5037845;28;20180;-83
2021/08/05 00:18:06;;;;;;;20.23;13.53;;;17.20;97.30;;;;;;5037907;28;20200;-83
2021/08/05 00:20:31;;;;;;;19.80;12.93;;;17.30;97.30;;;;;;5037779;28;20207;-83
2021/08/05 00:22:57;;;;;;;18.10;13.40;;;17.30;97.30;;;;;;5038959;28;20611;-83
2021/08/05 00:25:22;;;;;;;17.73;13.20;;;17.30;97.30;;;;;;5037811;28;20176;-83
2021/08/05 00:27:48;;;;;;;19.30;13.80;;;17.40;97.30;;;;;;5039489;28;20222;-83
2021/08/05 00:30:13;;;;;;;16.70;13.10;;;17.40;97.30;;;;;;5059023;28;20184;-82
2021/08/05 00:32:39;;;;;;;19.17;12.87;;;17.40;97.30;;;;;;5048102;28;20207;-82
2021/08/05 00:35:07;;;;;;;20.73;13.90;;;17.40;97.30;;;;;;5056801;28;20180;-81
2021/08/05 00:37:33;;;;;;;21.87;13.87;;;17.40;97.30;;;;;;5037745;28;20179;-82
2021/08/05 00:39:59;;;;;;;17.23;12.97;;;17.30;97.30;;;;;;5034823;28;21011;-82
2021/08/05 00:42:24;;;;;;;19.73;14.40;;;17.30;97.30;;;;;;5035506;28;20423;-82
2021/08/05 00:44:50;;;;;;;18.37;14.07;;;17.40;97.30;;;;;;5034940;28;20427;-81
2021/08/05 00:47:16;;;;;;;21.73;14.30;;;17.30;97.30;;;;;;5033344;28;20181;-80
2021/08/05 00:49:42;;;;;;;17.43;12.67;;;17.30;97.30;;;;;;5033496;28;20558;-82
2021/08/05 00:52:08;;;;;;;16.77;12.60;;;17.30;97.30;;;;;;5033571;28;20215;-81
2021/08/05 00:54:35;;;;;;;17.90;12.97;;;17.30;97.30;;;;;;5033714;28;20789;-82
2021/08/05 00:57:00;;;;;;;18.60;12.70;;;17.30;97.30;;;;;;5035437;28;20821;-81
2021/08/05 00:59:26;;;;;;;19.80;13.13;;;17.30;97.30;;;;;;5033445;28;20459;-82
2021/08/05 01:02:02;;;;;;;21.53;13.63;;;17.30;97.30;;;;;;5033618;28;20192;-82
2021/08/05 01:04:32;;;;;;;23.33;12.67;;;17.20;97.30;;;;;;5034832;28;20318;-82
2021/08/05 01:07:09;;;;;;;17.93;12.27;;;17.20;97.30;;;;;;5034455;28;20423;-83
2021/08/05 01:09:55;;;;;;;16.37;12.10;;;17.20;97.30;;;;;;5034020;28;20497;-81
2021/08/05 01:12:45;;;;;;;18.73;12.57;;;17.20;97.30;;;;;;5033330;28;20423;-81
2021/08/05 01:15:16;;;;;;;15.47;12.60;;;17.20;97.30;;;;;;5034226;28;20419;-81
2021/08/05 01:17:49;;;;;;;20.20;14.57;;;17.10;97.30;;;;;;5034266;28;20427;-81
2021/08/05 01:20:19;;;;;;;19.00;13.30;;;17.10;97.30;;;;;;5034517;28;20946;-81
2021/08/05 01:23:15;;;;;;;16.60;12.77;;;17.10;97.30;;;;;;5032874;28;20459;-81
2021/08/05 01:25:46;;;;;;;15.77;11.50;;;17.10;97.30;;;;;;5033336;28;20810;-81
2021/08/05 01:28:13;;;;;;;22.13;13.90;;;17.10;97.30;;;;;;5032604;28;20526;-81
2021/08/05 01:30:47;;;;;;;19.23;12.63;;;17.10;97.30;;;;;;5034081;28;20430;-81
2021/08/05 01:33:16;;;;;;;17.80;12.30;;;17.10;97.30;;;;;;5032827;28;20431;-82
2021/08/05 01:35:43;;;;;;;17.67;12.97;;;17.10;97.30;;;;;;5032890;28;20423;-81
2021/08/05 01:38:10;;;;;;;16.83;12.47;;;17.10;97.30;;;;;;5032762;28;20470;-81
2021/08/05 01:40:36;;;;;;;15.07;11.93;;;17.10;97.30;;;;;;5033574;28;20466;-81
2021/08/05 01:43:02;;;;;;;15.97;12.07;;;17.10;97.30;;;;;;5035001;28;20419;-81
2021/08/05 01:45:29;;;;;;;15.80;12.40;;;17.10;97.30;;;;;;5037956;28;20430;-80
2021/08/05 01:47:56;;;;;;;16.97;12.60;;;17.10;97.30;;;;;;5037474;28;20259;-81
2021/08/05 01:50:23;;;;;;;17.73;12.37;;;17.00;97.30;;;;;;5037546;28;20441;-81
2021/08/05 01:52:49;;;;;;;19.17;12.00;;;17.00;97.30;;;;;;5037173;28;20466;-83
2021/08/05 01:55:15;;;;;;;18.87;13.50;;;17.00;97.30;;;;;;5037973;28;20423;-81
2021/08/05 01:57:40;;;;;;;17.80;13.10;;;17.00;97.30;;;;;;5036880;28;20426;-81
2021/08/05 02:00:08;;;;;;;24.60;13.47;;;17.00;97.30;;;;;;5035786;28;20258;-81
2021/08/05 02:02:33;;;;;;;16.40;12.87;;;17.00;97.30;;;;;;5037787;28;20200;-81
2021/08/05 02:05:08;;;;;;;15.70;11.90;;;17.00;97.30;;;;;;5037362;28;20465;-81
2021/08/05 02:07:55;;;;;;;18.03;12.40;;;17.00;97.30;;;;;;5035911;28;20527;-81
2021/08/05 02:10:42;;;;;;;19.60;13.00;;;17.00;97.30;;;;;;5037540;28;20418;-81
2021/08/05 02:13:30;;;;;;;22.53;13.10;;;17.00;97.30;;;;;;5037847;28;20416;-81
2021/08/05 02:16:01;;;;;;;18.70;13.37;;;17.00;97.30;;;;;;5038033;28;20423;-81
2021/08/05 02:18:31;;;;;;;19.00;12.70;;;17.00;97.30;;;;;;5036544;28;20442;-81
2021/08/05 02:20:57;;;;;;;16.47;12.60;;;17.00;97.30;;;;;;5036840;28;20516;-81
2021/08/05 02:23:25;;;;;;;20.37;13.40;;;16.90;97.30;;;;;;5036898;28;20484;-80
2021/08/05 02:25:52;;;;;;;17.37;12.20;;;16.90;97.30;;;;;;5036401;28;20430;-82
2021/08/05 02:28:19;;;;;;;17.50;12.30;;;16.90;97.30;;;;;;5037260;28;20443;-81
2021/08/05 02:30:47;;;;;;;21.13;13.90;;;16.90;97.30;;;;;;5037750;28;20438;-81
2021/08/05 02:33:14;;;;;;;18.57;13.10;;;16.90;97.30;;;;;;5037443;28;20411;-81
2021/08/05 02:35:43;;;;;;;19.00;12.60;;;16.90;97.30;;;;;;5034999;28;20945;-82
2021/08/05 02:38:09;;;;;;;17.13;12.10;;;16.90;97.30;;;;;;5034853;28;20490;-82
2021/08/05 02:40:36;;;;;;;21.43;13.53;;;16.90;97.30;;;;;;5035828;28;20899;-82
2021/08/05 02:43:04;;;;;;;17.40;12.20;;;16.90;97.30;;;;;;5037076;28;20418;-82
2021/08/05 02:45:30;;;;;;;21.37;13.37;;;17.00;97.30;;;;;;5036272;28;20419;-82
2021/08/05 02:47:57;;;;;;;17.40;12.20;;;16.90;97.30;;;;;;5036784;28;20498;-84
2021/08/05 02:50:23;;;;;;;20.13;12.00;;;16.90;97.30;;;;;;5037394;28;20438;-81
2021/08/05 02:52:49;;;;;;;17.33;12.13;;;16.90;97.30;;;;;;5036927;28;20419;-82
2021/08/05 02:55:15;;;;;;;17.27;12.70;;;16.90;97.30;;;;;;5035729;28;20187;-82
2021/08/05 02:57:41;;;;;;;17.87;12.23;;;16.90;97.30;;;;;;5036692;28;20475;-82
2021/08/05 03:00:07;;;;;;;19.70;11.67;;;16.90;97.30;;;;;;5037134;28;20200;-82
2021/08/05 03:02:34;;;;;;;18.23;13.20;;;16.90;97.30;;;;;;5036406;28;20410;-82
2021/08/05 03:05:00;;;;;;;20.20;13.20;;;16.90;97.30;;;;;;5037986;28;20407;-83
2021/08/05 03:07:26;;;;;;;18.70;13.00;;;16.90;97.30;;;;;;5035513;28;20822;-82
2021/08/05 03:09:52;;;;;;;17.63;12.10;;;16.90;97.30;;;;;;5036878;28;20438;-82
2021/08/05 03:12:17;;;;;;;15.57;12.17;;;16.90;97.30;;;;;;5035274;28;20177;-83
2021/08/05 03:14:43;;;;;;;20.37;13.17;;;16.80;97.30;;;;;;5035580;28;20181;-82
2021/08/05 03:17:08;;;;;;;17.23;12.90;;;16.80;97.30;;;;;;5035238;28;20192;-82
2021/08/05 03:19:34;;;;;;;19.80;13.57;;;16.80;97.30;;;;;;5035782;28;20270;-83
2021/08/05 03:21:59;;;;;;;18.47;12.27;;;16.80;97.30;;;;;;5036469;28;20177;-83
2021/08/05 03:24:25;;;;;;;16.80;12.27;;;16.80;97.30;;;;;;5036976;28;20185;-83
2021/08/05 03:26:50;;;;;;;17.73;12.03;;;16.80;97.30;;;;;;5035937;28;20199;-83
2021/08/05 03:29:16;;;;;;;17.53;12.73;;;16.80;97.30;;;;;;5036054;28;20350;-82
2021/08/05 03:31:41;;;;;;;18.20;13.30;;;16.70;97.30;;;;;;5037424;28;20654;-83
2021/08/05 03:34:07;;;;;;;20.43;13.50;;;16.70;97.30;;;;;;5036206;28;20681;-83
2021/08/05 03:36:32;;;;;;;22.63;13.77;;;16.70;97.30;;;;;;5035925;28;20169;-83
2021/08/05 03:38:58;;;;;;;18.40;12.70;;;16.80;97.30;;;;;;5092774;22;20224;-83
2021/08/05 03:41:23;;;;;;;17.43;12.10;;;16.80;97.30;;;;;;5113537;28;20284;-83
2021/08/05 03:43:49;;;;;;;20.70;13.50;;;16.80;97.30;;;;;;5113867;28;20169;-84
2021/08/05 03:46:15;;;;;;;19.47;12.23;;;16.80;97.30;;;;;;5113669;28;20510;-85
2021/08/05 03:48:40;;;;;;;19.80;12.77;;;16.80;97.30;;;;;;5113728;28;20193;-85
2021/08/05 03:51:07;;;;;;;21.73;13.20;;;16.80;97.30;;;;;;5113203;28;20544;-84
2021/08/05 03:53:33;;;;;;;18.27;12.23;;;16.80;97.30;;;;;;5113828;28;20176;-85
2021/08/05 03:55:58;;;;;;;18.70;12.73;;;16.80;97.30;;;;;;5113193;28;20502;-84
2021/08/05 03:58:25;;;;;;;23.17;11.77;;;16.80;97.30;;;;;;5113104;28;20174;-85
2021/08/05 04:00:51;;;;;;;21.63;13.17;;;16.80;97.30;;;;;;5113448;28;20213;-84
2021/08/05 04:03:16;;;;;;;16.83;12.27;;;16.80;97.30;;;;;;5113441;28;20696;-85
2021/08/05 04:05:42;;;;;;;22.27;12.67;;;16.80;97.30;;;;;;5112652;28;20172;-85
2021/08/05 04:08:07;;;;;;;18.20;13.13;;;16.80;97.30;;;;;;5113084;28;20162;-85
2021/08/05 04:10:33;;;;;;;19.57;13.60;;;16.80;97.30;;;;;;5113115;28;20658;-86
2021/08/05 04:12:59;;;;;;;20.20;12.53;;;16.80;97.30;;;;;;5112815;28;20197;-85
2021/08/05 04:15:24;;;;;;;17.27;11.90;;;16.80;97.30;;;;;;5114370;28;20177;-85
2021/08/05 04:17:50;;;;;;;20.30;13.60;;;16.80;97.30;;;;;;5112465;28;20588;-85
2021/08/05 04:20:18;;;;;;;20.17;13.63;;;16.90;97.30;;;;;;5112666;28;20217;-85
2021/08/05 04:22:43;;;;;;;19.70;13.50;;;16.90;97.30;;;;;;5113037;28;20185;-85
2021/08/05 04:25:09;;;;;;;17.90;12.00;;;16.90;97.30;;;;;;5112677;28;20419;-85
2021/08/05 04:27:39;;;;;;;17.90;11.30;;;16.90;97.30;;;;;;5112616;28;20544;-85
2021/08/05 04:30:10;;;;;;;17.40;12.63;;;16.90;97.30;;;;;;5112896;28;20420;-85
2021/08/05 04:32:36;;;;;;;18.23;12.60;;;16.90;97.30;;;;;;5113223;28;20446;-85
2021/08/05 04:35:03;;;;;;;16.60;11.40;;;17.00;97.30;;;;;;5112615;28;20419;-85
2021/08/05 04:37:28;;;;;;;18.50;12.83;;;17.00;97.30;;;;;;5113105;28;20456;-86
2021/08/05 04:39:54;;;;;;;20.53;12.53;;;17.00;97.30;;;;;;5085909;28;20539;-86
2021/08/05 04:42:20;;;;;;;20.07;11.60;;;17.00;97.30;;;;;;5075704;28;20190;-85
2021/08/05 04:44:45;;;;;;;19.40;13.80;;;17.00;97.30;;;;;;5076243;28;20176;-86
2021/08/05 04:47:11;;;;;;;19.17;12.87;;;17.00;97.30;;;;;;5078102;28;20174;-86
2021/08/05 04:49:36;;;;;;;17.87;11.47;;;17.00;97.30;;;;;;5079934;28;20665;-85
2021/08/05 04:52:03;;;;;;;18.37;12.47;;;17.00;97.30;;;;;;5078578;28;20642;-86
2021/08/05 04:54:28;;;;;;;17.20;12.50;;;17.00;97.30;;;;;;5075258;28;20174;-86
2021/08/05 04:56:54;;;;;;;16.70;11.17;;;17.00;97.30;;;;;;5074770;28;20929;-86
2021/08/05 04:59:19;;;;;;;17.30;12.33;;;17.00;97.30;;;;;;5075177;28;20260;-85
2021/08/05 05:01:45;;;;;;;15.27;11.80;;;17.00;97.30;;;;;;5092515;28;20719;-85
2021/08/05 05:04:11;;;;;;;14.73;11.20;;;17.00;97.30;;;;;;5075443;28;20166;-86
2021/08/05 05:06:38;;;;;;;16.00;11.93;;;17.00;97.30;;;;;;5075008;28;20174;-85
2021/08/05 05:09:03;;;;;;;18.50;11.80;;;17.00;97.30;;;;;;5093386;28;20624;-86
2021/08/05 05:11:30;;;;;;;14.60;10.47;;;17.00;97.30;;;;;;5074951;28;20475;-86
2021/08/05 05:13:56;;;;;;;17.00;10.90;;;17.00;97.30;;;;;;5074782;28;20639;-86
2021/08/05 05:16:21;;;;;;;17.73;11.27;;;17.00;97.30;;;;;;5074872;28;20434;-86
2021/08/05 05:18:47;;;;;;;15.00;10.77;;;17.00;97.30;;;;;;5074277;28;20637;-86
2021/08/05 05:21:13;;;;;;;16.30;11.27;;;17.00;97.30;;;;;;5074941;28;20201;-86
2021/08/05 05:23:38;;;;;;;16.97;10.97;;;17.00;97.30;;;;;;5074546;28;20174;-85
2021/08/05 05:26:04;;;;;;;16.90;10.60;;;17.00;97.30;;;;;;5075084;28;20236;-85
2021/08/05 05:28:30;;;;;;;13.23;9.40;;;17.00;97.30;;;;;;5075250;28;20261;-85
2021/08/05 05:30:57;;;;;;;17.57;11.23;;;17.00;97.30;;;;;;5074865;28;20185;-85
2021/08/05 05:33:23;;;;;;;17.00;11.03;;;17.00;97.30;;;;;;5074559;28;20473;-86
2021/08/05 05:35:48;;;;;;;16.67;10.67;;;17.00;97.30;;;;;;5074554;28;20884;-86
2021/08/05 05:38:15;;;;;;;14.23;9.60;;;17.00;97.30;;;;;;5076032;28;20452;-85
2021/08/05 05:40:40;;;;;;;15.60;11.00;;;17.00;97.30;;;;;;5095233;28;20746;-86
2021/08/05 05:43:08;;;;;;;16.37;11.23;;;17.00;97.30;;;;;;5095394;28;20493;-86
2021/08/05 05:45:35;;;;;;;14.53;10.60;;;17.10;97.30;;;;;;5095002;28;20170;-85
2021/08/05 05:48:01;;;;;;;18.87;10.60;;;17.10;97.30;;;;;;5094920;28;20411;-85
2021/08/05 05:50:29;;;;;;;20.90;11.37;;;17.20;97.30;;;;;;5095480;28;20971;-86
2021/08/05 05:52:56;;;;;;;18.33;11.30;;;17.20;97.30;;;;;;5094743;28;20428;-86
2021/08/05 05:55:23;;;;;;;17.53;11.97;;;17.20;97.30;;;;;;5094855;28;20419;-86
2021/08/05 05:57:48;;;;;;;15.83;11.17;;;17.20;97.30;;;;;;5094986;28;20495;-86
2021/08/05 06:00:14;;;;;;;15.83;10.57;;;17.30;97.30;;;;;;5094563;28;21136;-86
2021/08/05 06:02:40;;;;;;;16.57;11.97;;;17.30;97.30;;;;;;5094571;28;20216;-86
2021/08/05 06:05:07;;;;;;;21.20;11.17;;;17.40;97.30;;;;;;5095349;28;20845;-86
2021/08/05 06:07:51;;;;;;;14.57;10.90;;;17.40;97.30;;;;;;5112434;28;20178;-86
2021/08/05 06:10:21;;;;;;;20.97;11.67;;;17.40;97.30;;;;;;5094332;28;20412;-86
2021/08/05 06:12:47;;;;;;;18.17;11.80;;;17.50;97.30;;;;;;5112595;28;20438;-86
2021/08/05 06:15:14;;;;;;;15.73;10.50;;;17.60;97.30;;;;;;5094809;28;20428;-86
2021/08/05 06:17:44;;;;;;;14.13;10.40;;;17.60;97.30;;;;;;5094842;28;20184;-86
2021/08/05 06:20:12;;;;;;;14.63;9.93;;;17.70;97.30;;;;;;5112580;28;20452;-86
2021/08/05 06:22:39;;;;;;;19.37;11.37;;;17.80;97.30;;;;;;5094876;28;20434;-86
2021/08/05 06:25:06;;;;;;;14.10;10.57;;;17.80;97.30;;;;;;5094439;28;20442;-85
2021/08/05 06:27:32;;;;;;;14.30;10.17;;;17.90;97.30;;;;;;5095051;28;20408;-86
2021/08/05 06:29:58;;;;;;;14.27;10.50;;;18.00;97.30;;;;;;5096897;28;20426;-85
2021/08/05 06:32:24;;;;;;;19.27;10.87;;;18.10;97.30;;;;;;5098776;28;20201;-86
2021/08/05 06:34:50;;;;;;;15.73;10.30;;;18.20;97.30;;;;;;5116488;28;20412;-86
2021/08/05 06:37:15;;;;;;;19.20;9.90;;;18.40;97.30;;;;;;5098308;28;20431;-86
2021/08/05 06:39:41;;;;;;;14.93;9.30;;;18.50;97.30;;;;;;5108161;28;20305;-86
2021/08/05 06:42:06;;;;;;;10.80;8.77;;;18.50;97.30;;;;;;5114667;28;20221;-86
2021/08/05 06:44:35;;;;;;;13.80;9.23;;;18.50;97.30;;;;;;5115019;28;20174;-86
2021/08/05 06:47:04;;;;;;;12.10;7.90;;;18.60;97.30;;;;;;5114961;28;20178;-86
2021/08/05 06:49:30;;;;;;;13.27;9.67;;;18.70;97.30;;;;;;5115071;28;20423;-86
2021/08/05 06:51:56;;;;;;;11.23;8.27;;;18.80;97.30;;;;;;5114626;28;20436;-86
2021/08/05 06:54:22;;;;;;;11.57;8.20;;;18.90;97.30;;;;;;5114366;28;20867;-85
2021/08/05 06:56:47;;;;;;;11.73;8.50;;;19.00;97.30;;;;;;5114937;28;20174;-86
2021/08/05 06:59:13;;;;;;;10.77;8.10;;;19.20;97.30;;;;;;5114589;28;20216;-86
2021/08/05 07:01:39;;;;;;;15.80;8.00;;;19.30;97.30;;;;;;5114665;28;20204;-86
2021/08/05 07:04:04;;;;;;;11.73;8.30;;;19.40;97.30;;;;;;5114700;28;20546;-86
2021/08/05 07:06:30;;;;;;;8.40;6.40;;;19.50;97.30;;;;;;5115241;28;20173;-85
2021/08/05 07:08:55;;;;;;;11.70;7.57;;;19.70;97.30;;;;;;5114069;28;20627;-85
2021/08/05 07:11:21;;;;;;;8.70;7.07;;;19.80;97.30;;;;;;5113901;28;20338;-86
2021/08/05 07:13:47;;;;;;;10.10;7.50;;;19.80;97.30;;;;;;5114519;28;20185;-86
2021/08/05 07:16:13;;;;;;;11.00;7.50;;;19.90;97.30;;;;;;5113861;28;20173;-86
2021/08/05 07:18:38;;;;;;;15.23;8.53;;;20.00;97.30;;;;;;5114386;28;20174;-85
2021/08/05 07:21:04;;;;;;;11.97;8.63;;;20.00;97.30;;;;;;5115284;28;20460;-86
2021/08/05 07:23:30;;;;;;;10.13;7.87;;;20.00;97.30;;;;;;5114235;28;20264;-86
2021/08/05 07:25:56;;;;;;;10.03;7.50;;;20.00;97.30;;;;;;5114728;28;20419;-86
2021/08/05 07:28:22;;;;;;;9.70;6.60;;;20.10;97.30;;;;;;5114159;28;20623;-86
2021/08/05 07:30:48;;;;;;;11.27;7.20;;;20.10;97.30;;;;;;5113829;28;20220;-86
2021/08/05 07:33:13;;;;;;;8.90;6.87;;;20.10;97.30;;;;;;5114318;28;20656;-85
2021/08/05 07:35:39;;;;;;;9.70;6.03;;;20.20;97.30;;;;;;5114038;28;20188;-86
2021/08/05 07:38:04;;;;;;;10.03;5.50;;;20.30;97.30;;;;;;5113753;28;20212;-86
2021/08/05 07:40:30;;;;;;;22.50;6.70;;;20.40;97.30;;;;;;5114384;28;20218;-86
2021/08/05 07:42:56;;;;;;;8.53;5.50;;;20.60;97.30;;;;;;5115325;28;20201;-86
2021/08/05 07:45:22;;;;;;;8.10;5.80;;;20.70;97.30;;;;;;5096698;28;20174;-86
2021/08/05 07:47:47;;;;;;;8.60;6.50;;;20.90;97.30;;;;;;5115269;28;20919;-86
2021/08/05 07:50:14;;;;;;;12.73;6.70;;;21.00;97.30;;;;;;5096892;28;20180;-84
2021/08/05 07:52:41;;;;;;;13.10;6.80;;;21.10;97.30;;;;;;5096670;28;20204;-85
2021/08/05 07:55:07;;;;;;;7.23;5.33;;;21.20;97.30;;;;;;5096426;28;20412;-85
2021/08/05 07:57:33;;;;;;;7.17;6.00;;;21.30;97.30;;;;;;5114983;28;20426;-85
2021/08/05 08:00:00;;;;;;;6.80;4.90;;;21.30;97.30;;;;;;5096698;28;20457;-84
2021/08/05 08:02:26;;;;;;;8.17;5.00;;;21.40;97.30;;;;;;5095516;28;20435;-84
2021/08/05 08:04:52;;;;;;;9.50;4.90;;;21.40;97.30;;;;;;5096169;28;20415;-85
2021/08/05 08:07:17;;;;;;;14.07;4.80;;;21.40;97.30;;;;;;5096176;28;20560;-84
2021/08/05 08:09:43;;;;;;;5.07;4.03;;;21.30;97.30;;;;;;5114502;28;20170;-85
2021/08/05 08:12:08;;;;;;;8.20;5.63;;;21.30;97.30;;;;;;5096618;28;20288;-85
2021/08/05 08:14:34;;;;;;;5.83;4.77;;;21.30;97.30;;;;;;5097122;28;20185;-85
2021/08/05 08:17:00;;;;;;;7.97;6.00;;;21.30;97.30;;;;;;5097667;28;20181;-85
2021/08/05 08:19:26;;;;;;;7.77;5.27;;;21.30;97.30;;;;;;5097165;28;20205;-86
2021/08/05 08:21:52;;;;;;;6.80;5.00;;;21.40;97.30;;;;;;5096562;28;20277;-87
2021/08/05 08:24:19;;;;;;;7.80;4.20;;;21.50;97.30;;;;;;5078005;28;20456;-89
2021/08/05 08:26:44;;;;;;;5.00;4.17;;;21.50;97.30;;;;;;5078618;28;20177;-88
2021/08/05 08:29:10;;;;;;;5.70;4.50;;;21.60;97.30;;;;;;5107630;28;20408;-88
2021/08/05 08:31:36;;;;;;;8.90;5.30;;;21.60;97.30;;;;;;5102163;28;20194;-88
2021/08/05 08:34:02;;;;;;;9.23;5.77;;;21.60;97.30;;;;;;5078187;28;20265;-88
2021/08/05 08:36:27;;;;;;;7.50;5.17;;;21.50;97.30;;;;;;5077803;28;20442;-88
2021/08/05 08:38:53;;;;;;;4.63;4.10;;;21.50;97.30;;;;;;5082854;28;20218;-90
2021/08/05 08:41:20;;;;;;;5.33;4.70;;;21.50;97.30;;;;;;5114216;28;20776;-88
2021/08/05 08:43:45;;;;;;;5.67;4.30;;;21.50;97.30;;;;;;5101222;28;20186;-88
2021/08/05 08:46:11;;;;;;;7.47;4.60;;;21.50;97.30;;;;;;5094388;28;20536;-90
2021/08/05 08:48:40;;;;;;;6.33;4.67;;;21.50;97.30;;;;;;5095197;28;20180;-89
2021/08/05 08:51:06;;;;;;;6.17;4.27;;;21.60;97.30;;;;;;5094315;28;20421;-89
2021/08/05 08:53:35;;;;;;;7.80;4.87;;;21.60;97.30;;;;;;5093692;28;20404;-89
2021/08/05 08:56:01;;;;;;;4.97;4.23;;;21.70;97.30;;;;;;5093527;28;20416;-88
2021/08/05 08:58:27;;;;;;;5.70;4.73;;;21.70;97.30;;;;;;5105217;28;20467;-89
2021/08/05 09:00:53;;;;;;;5.73;4.80;;;21.80;97.30;;;;;;5098330;28;20254;-90
2021/08/05 09:03:20;;;;;;;6.63;5.03;;;21.80;97.30;;;;;;5108478;28;20427;-90
2021/08/05 09:05:47;;;;;;;5.33;4.03;;;21.90;97.30;;;;;;5113107;28;20177;-88
2021/08/05 09:08:12;;;;;;;6.27;4.37;;;22.00;97.30;;;;;;5113000;28;20411;-89
2021/08/05 09:10:38;;;;;;;6.33;4.53;;;22.10;97.30;;;;;;5099231;28;20425;-89
2021/08/05 09:13:05;;;;;;;9.30;6.40;;;22.20;97.30;;;;;;5099331;28;20670;-89
2021/08/05 09:15:33;;;;;;;6.00;5.23;;;22.20;97.30;;;;;;5093807;28;20530;-88
2021/08/05 09:17:59;;;;;;;6.80;5.30;;;22.20;97.30;;;;;;5092008;28;20545;-90
2021/08/05 09:20:25;;;;;;;8.90;5.00;;;22.30;97.30;;;;;;5092132;28;20463;-89
2021/08/05 09:22:50;;;;;;;6.50;5.00;;;22.40;97.30;;;;;;5111063;28;20197;-89
2021/08/05 09:25:33;;;;;;;10.10;6.00;;;22.50;97.30;;;;;;5113208;28;20176;-89
2021/08/05 09:28:21;;;;;;;7.60;5.40;;;22.60;97.30;;;;;;5114687;28;20230;-89
2021/08/05 09:30:47;;;;;;;8.50;6.20;;;22.70;97.30;;;;;;5112780;28;20426;-89
2021/08/05 09:33:17;;;;;;;7.00;4.93;;;22.90;97.30;;;;;;5113649;28;20444;-89
2021/08/05 09:35:45;;;;;;;7.30;5.50;;;22.90;97.30;;;;;;5113041;28;20173;-90
2021/08/05 09:40:50;;;;;;;5.80;4.23;;;23.00;96.20;;;;;;5091487;28;20480;-82
2021/08/05 09:43:28;;;;;;;7.57;5.13;;;23.00;94.90;;;;;;5094472;28;20511;-82
2021/08/05 09:45:54;;;;;;;10.87;5.20;;;23.00;95.20;;;;;;5075788;28;20427;-82
2021/08/05 09:48:37;;;;;;;6.00;4.93;;;23.10;95.80;;;;;;5075287;28;20408;-82
2021/08/05 09:51:10;;;;;;;7.27;6.10;;;23.10;95.30;;;;;;5076440;28;20227;-82
2021/08/05 09:54:02;;;;;;;10.53;6.13;;;23.00;94.70;;;;;;5076421;28;20413;-82
2021/08/05 09:56:31;;;;;;;8.63;5.03;;;23.00;95.80;;;;;;5075369;28;20473;-82
2021/08/05 09:59:26;;;;;;;7.00;5.47;;;22.90;95.70;;;;;;5076861;28;20424;-82
2021/08/05 10:01:58;;;;;;;8.77;6.27;;;22.90;95.30;;;;;;5059894;28;20459;-82
2021/08/05 10:04:29;;;;;;;11.80;8.00;;;22.80;95.10;;;;;;5079015;28;20441;-82
2021/08/05 10:06:57;;;;;;;7.93;6.00;;;22.80;95.80;;;;;;5081889;28;20465;-85
2021/08/05 10:09:22;;;;;;;7.47;5.50;;;22.80;95.70;;;;;;5080945;28;20487;-82
2021/08/05 10:11:48;;;;;;;7.70;5.40;;;22.80;96.30;;;;;;5081131;28;20412;-82
2021/08/05 10:14:23;;;;;;;8.23;6.60;;;22.80;96.20;;;;;;5099298;28;20633;-83
2021/08/05 10:16:51;;;;;;;9.37;6.87;;;22.80;95.80;;;;;;5081306;28;20694;-82
2021/08/05 10:19:18;;;;;;;8.70;6.47;;;22.80;96.50;;;;;;5079974;28;20449;-81
2021/08/05 10:21:46;;;;;;;8.53;6.20;;;22.90;96.20;;;;;;5097993;28;20421;-82
2021/08/05 10:24:14;;;;;;;10.73;5.33;;;22.90;95.70;;;;;;5098410;28;20439;-85
2021/08/05 10:26:40;;;;;;;7.17;5.40;;;22.90;96.30;;;;;;5098724;28;20405;-82
2021/08/05 10:29:06;;;;;;;8.27;5.47;;;22.90;96.60;;;;;;5080413;28;20805;-83
2021/08/05 10:31:33;;;;;;;8.10;6.03;;;22.90;97.30;;;;;;5080104;28;20447;-82
2021/08/05 10:33:59;;;;;;;7.47;6.10;;;22.90;96.20;;;;;;5081110;28;20181;-83
2021/08/05 10:36:25;;;;;;;6.73;5.23;;;22.90;95.70;;;;;;5081552;28;20420;-83
2021/08/05 10:38:50;;;;;;;7.87;5.03;;;22.90;95.50;;;;;;5077383;28;20230;-83
2021/08/05 10:41:17;;;;;;;5.80;4.97;;;22.80;94.30;;;;;;5078273;28;20238;-83
2021/08/05 10:43:43;;;;;;;6.10;4.90;;;22.80;94.80;;;;;;5079013;28;20268;-83
2021/08/05 10:46:09;;;;;;;6.87;5.43;;;22.80;95.00;;;;;;5078825;28;20464;-82
2021/08/05 10:48:36;;;;;;;6.30;4.93;;;22.70;95.00;;;;;;5060887;28;20449;-82
2021/08/05 10:51:01;;;;;;;7.30;5.27;;;22.70;94.90;;;;;;5060540;28;20198;-83
2021/08/05 10:53:36;;;;;;;6.97;5.67;;;22.70;94.70;;;;;;5060210;28;20792;-82
2021/08/05 10:56:27;;;;;;;6.13;4.90;;;22.60;94.00;;;;;;5060192;28;20185;-83
2021/08/05 10:59:12;;;;;;;7.20;4.70;;;22.50;95.00;;;;;;5077763;28;20433;-82
2021/08/05 11:01:45;;;;;;;10.10;5.67;;;22.50;95.80;;;;;;5078554;28;20433;-82
2021/08/05 11:04:31;;;;;;;10.80;6.20;;;22.50;97.30;;;;;;5068394;28;20847;-82
2021/08/05 11:07:20;;;;;;;10.80;5.70;;;22.30;97.30;;;;;;5061461;28;20414;-82
2021/08/05 11:09:46;;;;;;;7.70;6.30;;;22.30;97.30;;;;;;5061903;28;20532;-82
2021/08/05 11:12:33;;;;;;;14.03;6.70;;;22.20;97.30;;;;;;5081236;28;20452;-81
2021/08/05 11:14:59;;;;;;;9.50;7.10;;;22.10;97.30;;;;;;5063072;28;20625;-82
2021/08/05 11:17:24;;;;;;;9.30;7.03;;;22.00;97.30;;;;;;5062902;28;20457;-81
2021/08/05 11:20:13;;;;;;;10.93;7.37;;;21.90;97.30;;;;;;5063685;28;20759;-82
2021/08/05 11:22:40;;;;;;;9.30;7.63;;;21.80;97.30;;;;;;5063083;28;20181;-82
2021/08/05 11:25:06;;;;;;;11.97;7.90;;;21.80;97.30;;;;;;5062712;28;20410;-82
2021/08/05 11:27:31;;;;;;;10.37;7.13;;;21.80;97.30;;;;;;5062444;28;20951;-81
2021/08/05 11:29:57;;;;;;;9.53;7.47;;;21.80;97.30;;;;;;5063303;28;20807;-81
2021/08/05 11:32:22;;;;;;;11.60;7.50;;;21.80;97.30;;;;;;5080754;28;20222;-81
2021/08/05 11:35:06;;;;;;;12.10;8.57;;;21.60;97.30;;;;;;5061810;28;20179;-82
2021/08/05 11:37:33;;;;;;;10.73;7.70;;;21.50;97.30;;;;;;5080783;28;20182;-81
2021/08/05 11:40:02;;;;;;;12.70;7.57;;;21.50;97.30;;;;;;5094442;28;20558;-82
2021/08/05 11:42:31;;;;;;;11.03;7.70;;;21.50;97.30;;;;;;5100072;28;20401;-81
2021/08/05 11:44:56;;;;;;;8.27;6.57;;;21.40;97.30;;;;;;5082524;28;20494;-81
2021/08/05 11:47:45;;;;;;;9.93;7.30;;;21.40;97.30;;;;;;5082294;28;20440;-82
2021/08/05 11:50:16;;;;;;;11.30;7.33;;;21.30;97.30;;;;;;5082716;28;20206;-81
2021/08/05 11:52:43;;;;;;;12.10;8.00;;;21.20;97.30;;;;;;5087373;28;20487;-82
2021/08/05 11:55:22;;;;;;;12.43;7.50;;;21.20;97.30;;;;;;5062572;28;20433;-81
2021/08/05 11:57:52;;;;;;;10.80;7.67;;;21.20;97.30;;;;;;5063390;28;20441;-81
2021/08/05 12:00:39;;;;;;;12.80;7.80;;;21.20;97.30;;;;;;5061637;28;20471;-81
2021/08/05 12:03:06;;;;;;;14.43;9.30;;;21.20;97.30;;;;;;5061669;28;20437;-82
2021/08/05 12:05:39;;;;;;;11.60;9.20;;;21.10;97.30;;;;;;5062220;28;20433;-81
2021/08/05 12:08:04;;;;;;;14.37;9.17;;;21.10;97.30;;;;;;5080322;28;20406;-81
2021/08/05 12:10:32;;;;;;;13.20;9.07;;;20.90;97.30;;;;;;5061158;28;20448;-82
2021/08/05 12:13:03;;;;;;;18.30;9.60;;;20.80;97.30;;;;;;5060876;28;20590;-82
2021/08/05 12:15:37;;;;;;;14.03;9.17;;;20.80;97.30;;;;;;5060008;28;20436;-82
2021/08/05 12:18:08;;;;;;;12.40;8.43;;;20.80;97.30;;;;;;5060258;28;20959;-81
2021/08/05 12:20:36;;;;;;;19.30;8.30;;;20.80;97.30;;;;;;5077767;28;20469;-81
2021/08/05 12:23:10;;;;;;;8.73;6.80;;;20.80;97.30;;;;;;5078342;28;20410;-81
2021/08/05 12:25:48;;;;;;;12.50;8.27;;;20.80;97.30;;;;;;5061049;28;20418;-82
2021/08/05 12:28:17;;;;;;;12.33;8.50;;;20.80;97.30;;;;;;5062108;28;20413;-81
2021/08/05 12:30:52;;;;;;;11.00;8.10;;;20.80;97.30;;;;;;5058105;28;20421;-81
2021/08/05 12:33:22;;;;;;;16.97;8.43;;;20.70;97.30;;;;;;5057426;28;20416;-82
2021/08/05 12:36:07;;;;;;;15.47;10.17;;;20.70;97.30;;;;;;5056887;28;20590;-82
2021/08/05 12:38:50;;;;;;;16.70;10.80;;;20.70;97.30;;;;;;5057781;28;20441;-83
2021/08/05 12:41:20;;;;;;;14.83;11.30;;;20.60;97.30;;;;;;5075577;28;20468;-82